OYCAT EKAT-EKLS

Flight info

Callsign OYCAT
Flight time 0h 18m
Altitude 1500
Route VFR
Aircraft BN2P/L-V/N

Departure

Time 2026-05-09 11:08
Airport Anholt Airfield (EKAT)

Arrival

Time 2026-05-09 11:26
Airport Læsø Airport (EKLS)
Time Latitude Longitude Altitude Speed Heading
2026-05-09 10:57 56.69986 11.55574 28 ft 0 kts 292°
2026-05-09 11:05 56.69987 11.55572 28 ft 1 kts 324°
2026-05-09 11:06 56.69986 11.55594 28 ft 8 kts 119°
2026-05-09 11:06 56.69955 11.55678 25 ft 5 kts 196°
2026-05-09 11:06 56.69915 11.55663 24 ft 11 kts 185°
2026-05-09 11:06 56.69806 11.55582 27 ft 20 kts 204°
2026-05-09 11:07 56.69670 11.55466 31 ft 22 kts 206°
2026-05-09 11:07 56.69572 11.55382 31 ft 6 kts 202°
2026-05-09 11:07 56.69563 11.55346 31 ft 5 kts 309°
2026-05-09 11:07 56.69577 11.55344 30 ft 0 kts 25°
2026-05-09 11:08 56.69807 11.55545 27 ft 72 kts 20°
2026-05-09 11:08 56.70310 11.55946 360 ft 76 kts 26°
2026-05-09 11:08 56.70830 11.56310 674 ft 86 kts 13°
2026-05-09 11:09 56.71371 11.56001 918 ft 87 kts 314°
2026-05-09 11:09 56.71647 11.55044 1192 ft 91 kts 288°
2026-05-09 11:09 56.72082 11.54166 1560 ft 102 kts 327°
2026-05-09 11:09 56.72775 11.53394 1744 ft 128 kts 327°
2026-05-09 11:10 56.73550 11.52450 1767 ft 139 kts 326°
2026-05-09 11:10 56.74378 11.51456 1757 ft 146 kts 327°
2026-05-09 11:10 56.75248 11.50428 1716 ft 149 kts 328°
2026-05-09 11:10 56.76142 11.49375 1531 ft 156 kts 327°
2026-05-09 11:11 56.77057 11.48305 1369 ft 156 kts 327°
2026-05-09 11:11 56.77931 11.47289 1424 ft 144 kts 327°
2026-05-09 11:11 56.78754 11.46332 1450 ft 141 kts 327°
2026-05-09 11:11 56.79585 11.45388 1459 ft 140 kts 329°
2026-05-09 11:12 56.80416 11.44462 1459 ft 140 kts 329°
2026-05-09 11:12 56.81247 11.43551 1464 ft 139 kts 329°
2026-05-09 11:12 56.82075 11.42649 1463 ft 139 kts 329°
2026-05-09 11:12 56.82906 11.41748 1465 ft 138 kts 329°
2026-05-09 11:13 56.83733 11.40850 1467 ft 138 kts 329°
2026-05-09 11:13 56.84559 11.39951 1469 ft 138 kts 329°
2026-05-09 11:13 56.85383 11.39048 1480 ft 139 kts 329°
2026-05-09 11:13 56.86215 11.38137 1481 ft 140 kts 329°
2026-05-09 11:14 56.87046 11.37234 1478 ft 141 kts 329°
2026-05-09 11:14 56.87903 11.36297 1474 ft 142 kts 329°
2026-05-09 11:14 56.88742 11.35378 1477 ft 143 kts 329°
2026-05-09 11:14 56.89594 11.34450 1469 ft 142 kts 329°
2026-05-09 11:15 56.90447 11.33531 1470 ft 142 kts 329°
2026-05-09 11:15 56.91292 11.32617 1467 ft 141 kts 330°
2026-05-09 11:15 56.92141 11.31741 1469 ft 139 kts 333°
2026-05-09 11:15 56.93005 11.30946 1465 ft 139 kts 335°
2026-05-09 11:16 56.93876 11.30195 1470 ft 138 kts 336°
2026-05-09 11:16 56.94777 11.29439 1474 ft 149 kts 336°
2026-05-09 11:16 56.95733 11.28648 1474 ft 151 kts 336°
2026-05-09 11:16 56.96687 11.27861 1475 ft 149 kts 336°
2026-05-09 11:17 56.97632 11.27092 1472 ft 148 kts 336°
2026-05-09 11:17 56.98571 11.26329 1465 ft 147 kts 336°
2026-05-09 11:17 56.99504 11.25573 1456 ft 146 kts 336°
2026-05-09 11:17 57.00418 11.24824 1474 ft 146 kts 336°
2026-05-09 11:18 57.01351 11.24056 1478 ft 147 kts 336°
2026-05-09 11:18 57.02291 11.23285 1477 ft 148 kts 336°
2026-05-09 11:18 57.03228 11.22499 1476 ft 148 kts 336°
2026-05-09 11:18 57.04169 11.21723 1471 ft 148 kts 336°
2026-05-09 11:19 57.05107 11.20948 1468 ft 147 kts 336°
2026-05-09 11:19 57.06042 11.20177 1470 ft 147 kts 336°
2026-05-09 11:19 57.06977 11.19413 1470 ft 147 kts 336°
2026-05-09 11:19 57.07909 11.18645 1473 ft 146 kts 336°
2026-05-09 11:20 57.08839 11.17878 1475 ft 147 kts 336°
2026-05-09 11:20 57.09775 11.17109 1478 ft 147 kts 336°
2026-05-09 11:20 57.10710 11.16340 1469 ft 147 kts 336°
2026-05-09 11:20 57.11643 11.15573 1469 ft 147 kts 336°
2026-05-09 11:21 57.12577 11.14804 1476 ft 147 kts 336°
2026-05-09 11:21 57.13503 11.14044 1473 ft 148 kts 336°
2026-05-09 11:21 57.14441 11.13280 1467 ft 147 kts 336°
2026-05-09 11:21 57.15376 11.12516 1468 ft 147 kts 336°
2026-05-09 11:22 57.16308 11.11754 1470 ft 147 kts 336°
2026-05-09 11:22 57.17232 11.10987 1457 ft 145 kts 335°
2026-05-09 11:22 57.18135 11.10190 1463 ft 143 kts 334°
2026-05-09 11:22 57.19036 11.09371 1428 ft 146 kts 334°
2026-05-09 11:23 57.19953 11.08520 1369 ft 148 kts 333°
2026-05-09 11:23 57.20870 11.07627 1322 ft 149 kts 330°
2026-05-09 11:23 57.21703 11.06583 1272 ft 144 kts 323°
2026-05-09 11:23 57.22481 11.05436 1224 ft 142 kts 319°
2026-05-09 11:24 57.23249 11.04301 1178 ft 141 kts 324°
2026-05-09 11:24 57.24062 11.03322 1156 ft 129 kts 327°
2026-05-09 11:24 57.24745 11.02557 1100 ft 103 kts 329°
2026-05-09 11:24 57.25367 11.02112 984 ft 90 kts 358°
2026-05-09 11:25 57.25957 11.02362 853 ft 88 kts 24°
2026-05-09 11:25 57.26519 11.02800 722 ft 85 kts 28°
2026-05-09 11:25 57.27035 11.03246 619 ft 78 kts 19°
2026-05-09 11:25 57.27570 11.03256 582 ft 76 kts 344°
2026-05-09 11:26 57.27990 11.02763 410 ft 70 kts 302°
2026-05-09 11:26 57.28114 11.01920 296 ft 70 kts 269°
2026-05-09 11:26 57.27984 11.01013 110 ft 73 kts 240°
2026-05-09 11:26 57.27793 11.00279 26 ft 49 kts 248°
2026-05-09 11:27 57.27706 10.99929 30 ft 10 kts 232°
2026-05-09 11:27 57.27692 10.99901 30 ft 1 kts 296°
2026-05-09 11:27 57.27710 10.99941 30 ft 8 kts 65°
2026-05-09 11:27 57.27736 11.00047 27 ft 10 kts 65°
2026-05-09 11:28 57.27774 11.00203 25 ft 14 kts 66°
2026-05-09 11:28 57.27813 11.00356 23 ft 13 kts 64°
2026-05-09 11:28 57.27805 11.00454 24 ft 8 kts 154°
2026-05-09 11:28 57.27743 11.00514 27 ft 12 kts 151°
2026-05-09 11:29 57.27677 11.00583 29 ft 9 kts 149°
2026-05-09 11:29 57.27631 11.00633 29 ft 5 kts 152°
2026-05-09 11:29 57.27618 11.00646 29 ft 0 kts 151°